createdAt,value
2022-12-26T00:01:36.675Z,99720.60
2022-12-26T00:04:48.559Z,99729.86
2022-12-26T00:07:07.390Z,99728.73
2022-12-26T00:10:29.934Z,99731.86
2022-12-26T00:13:39.876Z,99729.84
2022-12-26T00:20:37.740Z,99727.08
2022-12-26T00:32:51.847Z,99717.30
2022-12-26T00:36:36.645Z,99719.09
2022-12-26T00:44:00.112Z,99705.01
2022-12-26T00:55:56.122Z,99692.07
2022-12-26T00:59:49.987Z,99678.60
2022-12-26T01:02:52.737Z,99695.77
2022-12-26T01:05:30.296Z,99701.04
2022-12-26T01:08:53.058Z,99701.55
2022-12-26T01:11:39.018Z,99703.79
2022-12-26T01:15:26.750Z,99706.85
2022-12-26T01:18:04.265Z,99714.44
2022-12-26T01:21:04.280Z,99715.70
2022-12-26T01:32:38.411Z,99708.86
2022-12-26T01:35:22.631Z,99719.42
2022-12-26T01:39:06.757Z,99721.45
2022-12-26T01:46:50.200Z,99685.45
2022-12-26T01:58:18.673Z,99628.77
2022-12-26T02:01:44.227Z,99622.17
2022-12-26T02:05:30.809Z,99632.95
2022-12-26T02:09:20.793Z,99654.36
2022-12-26T02:12:33.799Z,99639.24
2022-12-26T02:15:36.759Z,99637.67
2022-12-26T02:18:36.733Z,99636.61
2022-12-26T02:21:40.826Z,99625.33
2022-12-26T02:29:04.248Z,99612.12
2022-12-26T02:32:05.101Z,99609.00
2022-12-26T02:40:16.089Z,99610.55
2022-12-26T02:47:31.336Z,99604.56
2022-12-26T02:51:13.101Z,99612.55
2022-12-26T03:03:34.364Z,99603.43
2022-12-26T03:06:54.116Z,99614.48
2022-12-26T03:10:25.003Z,99610.81
2022-12-26T03:13:12.788Z,99605.69
2022-12-26T03:16:50.216Z,99593.34
2022-12-26T03:20:02.394Z,99600.09
2022-12-26T03:23:51.012Z,99607.44
2022-12-26T03:34:55.014Z,99620.00
2022-12-26T03:42:45.758Z,99610.44
2022-12-26T03:45:52.508Z,99613.66
2022-12-26T03:53:12.603Z,99589.44
2022-12-26T03:56:32.880Z,99597.85
2022-12-26T04:00:10.372Z,99588.27
2022-12-26T04:03:54.264Z,99594.58
2022-12-26T04:06:50.246Z,99608.73
2022-12-26T04:10:39.005Z,99606.86
2022-12-26T04:14:23.247Z,99600.09
2022-12-26T04:18:09.287Z,99594.34
2022-12-26T04:21:52.169Z,99588.44
2022-12-26T04:24:52.706Z,99572.42
2022-12-26T04:27:45.063Z,99573.67
2022-12-26T04:35:39.709Z,99558.15
2022-12-26T04:38:59.232Z,99578.24
2022-12-26T04:41:53.418Z,99583.68
2022-12-26T04:45:53.322Z,99581.77
2022-12-26T04:49:13.687Z,99584.33
2022-12-26T04:51:46.238Z,99572.18
2022-12-26T04:54:42.599Z,99566.30
2022-12-26T04:57:19.110Z,99568.38
2022-12-26T05:00:25.190Z,99565.81
2022-12-26T05:07:50.513Z,99577.91
2022-12-26T05:16:11.385Z,99576.03
2022-12-26T05:19:30.430Z,99571.45
2022-12-26T05:22:24.935Z,99573.35
2022-12-26T05:25:22.839Z,99566.36
2022-12-26T05:32:06.587Z,99543.86
2022-12-26T05:35:54.319Z,99545.87
2022-12-26T05:39:40.421Z,99558.89
2022-12-26T05:42:36.342Z,99553.29
2022-12-26T05:45:35.377Z,99553.64
2022-12-26T05:49:26.193Z,99556.28
2022-12-26T05:52:23.627Z,99560.23
2022-12-26T05:56:00.324Z,99568.80
2022-12-26T05:58:34.642Z,99568.44
2022-12-26T06:01:15.866Z,99559.49
2022-12-26T06:04:20.256Z,99565.48
2022-12-26T06:07:16.097Z,99587.81
2022-12-26T06:09:51.004Z,99568.42
2022-12-26T06:12:50.212Z,99584.98
2022-12-26T06:15:22.792Z,99574.68
2022-12-26T06:18:53.873Z,99579.26
2022-12-26T06:21:52.430Z,99569.91
2022-12-26T06:25:23.747Z,99588.23
2022-12-26T06:29:19.724Z,99579.14
2022-12-26T06:31:55.932Z,99593.69
2022-12-26T06:35:18.310Z,99594.55
2022-12-26T06:39:02.959Z,99593.02
2022-12-26T06:41:39.020Z,99568.70
2022-12-26T06:44:35.561Z,99565.34
2022-12-26T06:52:16.710Z,99566.42
2022-12-26T06:54:50.855Z,99564.15
2022-12-26T06:58:12.722Z,99573.11
2022-12-26T07:00:45.385Z,99594.52
2022-12-26T07:03:18.065Z,99605.97
2022-12-26T07:06:27.721Z,99604.48
2022-12-26T07:09:46.948Z,99596.93
2022-12-26T07:17:00.632Z,99602.28
2022-12-26T07:19:35.026Z,99598.94
2022-12-26T07:22:58.667Z,99603.58
2022-12-26T07:25:57.377Z,99589.00
2022-12-26T07:29:23.505Z,99610.52
2022-12-26T07:36:09.871Z,99618.89
2022-12-26T07:39:08.988Z,99625.71
2022-12-26T07:42:03.614Z,99626.85
2022-12-26T07:45:09.783Z,99624.43
2022-12-26T07:47:45.041Z,99621.99
2022-12-26T07:50:16.361Z,99624.47
2022-12-26T07:53:36.181Z,99629.72
2022-12-26T07:56:12.420Z,99627.33
2022-12-26T07:58:58.760Z,99617.05
2022-12-26T08:01:36.209Z,99617.84
2022-12-26T08:04:58.005Z,99624.62
2022-12-26T08:08:22.795Z,99624.00
2022-12-26T08:16:36.877Z,99648.36
2022-12-26T08:19:10.495Z,99655.61
2022-12-26T08:21:52.808Z,99652.91
2022-12-26T08:24:52.078Z,99653.29
2022-12-26T08:27:25.359Z,99648.41
2022-12-26T08:29:58.791Z,99647.27
2022-12-26T08:33:50.941Z,99649.92
2022-12-26T08:36:46.918Z,99651.36
2022-12-26T08:48:09.575Z,99647.98
2022-12-26T08:51:12.770Z,99648.67
2022-12-26T08:54:11.611Z,99643.06
2022-12-26T08:57:11.701Z,99643.63
2022-12-26T09:00:14.157Z,99649.02
2022-12-26T09:03:19.944Z,99646.06
2022-12-26T09:06:23.833Z,99652.65
2022-12-26T09:13:17.682Z,99653.67
2022-12-26T09:15:56.475Z,99664.34
2022-12-26T09:18:32.014Z,99676.30
2022-12-26T09:21:10.431Z,99669.68
2022-12-26T09:24:07.690Z,99667.66
2022-12-26T09:26:40.424Z,99666.39
2022-12-26T09:30:17.964Z,99652.16
2022-12-26T09:32:55.606Z,99650.61
2022-12-26T09:36:15.996Z,99644.17
2022-12-26T09:43:12.733Z,99640.20
2022-12-26T09:46:12.488Z,99643.64
2022-12-26T09:48:52.889Z,99633.94
2022-12-26T09:52:12.029Z,99631.27
2022-12-26T09:55:16.616Z,99639.38
2022-12-26T09:58:04.141Z,99639.23
2022-12-26T10:00:54.018Z,99635.45
2022-12-26T10:03:53.476Z,99636.65
2022-12-26T10:06:31.702Z,99633.01
2022-12-26T10:09:43.682Z,99629.83
2022-12-26T10:13:08.038Z,99640.47
2022-12-26T10:16:27.671Z,99661.80
2022-12-26T10:19:13.672Z,99651.27
2022-12-26T10:21:59.763Z,99647.94
2022-12-26T10:24:41.559Z,99640.08
2022-12-26T10:27:29.031Z,99635.55
2022-12-26T10:30:06.680Z,99634.70
2022-12-26T10:32:45.564Z,99641.08
2022-12-26T10:35:31.639Z,99648.08
2022-12-26T10:38:13.181Z,99656.22
2022-12-26T10:41:14.746Z,99648.56
2022-12-26T10:43:53.778Z,99647.49
2022-12-26T10:47:03.732Z,99635.86
2022-12-26T10:49:39.060Z,99635.15
2022-12-26T10:52:16.254Z,99636.64
2022-12-26T10:55:28.467Z,99629.80
2022-12-26T10:58:27.052Z,99637.46
2022-12-26T11:01:19.658Z,99634.90
2022-12-26T11:04:00.427Z,99632.84
2022-12-26T11:07:24.417Z,99628.09
2022-12-26T11:10:26.467Z,99624.61
2022-12-26T11:13:26.021Z,99625.51
2022-12-26T11:16:47.306Z,99599.86
2022-12-26T11:19:32.595Z,99610.95
2022-12-26T11:22:25.406Z,99607.35
2022-12-26T11:25:22.596Z,99612.79
2022-12-26T11:28:35.591Z,99615.89
2022-12-26T11:31:40.178Z,99614.93
2022-12-26T11:34:32.699Z,99605.09
2022-12-26T11:37:07.731Z,99602.85
2022-12-26T11:39:44.362Z,99590.06
2022-12-26T11:43:11.402Z,99574.36
2022-12-26T11:46:34.596Z,99567.75
2022-12-26T11:49:55.392Z,99572.35
2022-12-26T11:52:39.704Z,99587.88
2022-12-26T11:55:34.024Z,99586.41
2022-12-26T11:58:29.744Z,99591.64
2022-12-26T12:01:18.253Z,99599.24
2022-12-26T12:04:38.484Z,99605.45
2022-12-26T12:07:25.410Z,99601.43
2022-12-26T12:10:07.610Z,99603.23
2022-12-26T12:12:53.728Z,99598.06
2022-12-26T12:15:33.129Z,99598.70
2022-12-26T12:18:20.475Z,99599.36
2022-12-26T12:21:43.522Z,99596.21
2022-12-26T12:24:46.928Z,99585.15
2022-12-26T12:27:51.106Z,99585.38
2022-12-26T12:30:42.674Z,99578.48
2022-12-26T12:33:45.340Z,99583.73
2022-12-26T12:36:29.498Z,99579.48
2022-12-26T12:39:13.513Z,99580.94
2022-12-26T12:42:19.201Z,99586.98
2022-12-26T12:45:27.415Z,99582.80
2022-12-26T12:48:28.792Z,99591.24
2022-12-26T12:51:18.993Z,99576.92
2022-12-26T12:54:39.691Z,99567.27
2022-12-26T12:57:25.159Z,99567.73
2022-12-26T13:01:18.714Z,99558.39
2022-12-26T13:04:02.985Z,99549.48
2022-12-26T13:06:41.018Z,99544.95
2022-12-26T13:09:22.888Z,99540.89
2022-12-26T13:12:02.177Z,99546.55
2022-12-26T13:14:39.946Z,99548.16
2022-12-26T13:17:23.338Z,99541.44
2022-12-26T13:20:05.808Z,99549.80
2022-12-26T13:23:01.270Z,99552.78
2022-12-26T13:25:38.446Z,99550.56
2022-12-26T13:28:22.175Z,99554.04
2022-12-26T13:30:57.862Z,99551.02
2022-12-26T13:33:31.560Z,99552.46
2022-12-26T13:36:06.782Z,99552.72
2022-12-26T13:39:21.823Z,99549.15
2022-12-26T13:42:15.735Z,99544.73
2022-12-26T13:44:54.439Z,99550.64
2022-12-26T13:47:38.606Z,99556.35
2022-12-26T13:50:56.544Z,99560.29
2022-12-26T13:53:37.333Z,99564.83
2022-12-26T13:57:04.041Z,99563.23
2022-12-26T13:59:43.268Z,99551.63
2022-12-26T14:03:15.863Z,99556.10
2022-12-26T14:05:43.353Z,99554.56
2022-12-26T14:08:31.506Z,99555.77
2022-12-26T14:11:20.232Z,99560.33
2022-12-26T14:14:15.421Z,99560.13
2022-12-26T14:16:55.109Z,99556.02
2022-12-26T14:19:43.957Z,99554.62
2022-12-26T14:22:31.464Z,99566.64
2022-12-26T14:25:11.180Z,99566.08
2022-12-26T14:28:14.095Z,99561.92
2022-12-26T14:31:14.692Z,99557.30
2022-12-26T14:33:58.441Z,99560.05
2022-12-26T14:36:47.431Z,99552.31
2022-12-26T14:39:37.624Z,99546.75
2022-12-26T14:42:49.292Z,99540.73
2022-12-26T14:45:44.756Z,99552.42
2022-12-26T14:48:44.497Z,99549.70
2022-12-26T14:51:41.517Z,99555.52
2022-12-26T14:54:32.752Z,99555.31
2022-12-26T14:57:43.482Z,99547.89
2022-12-26T15:00:33.833Z,99545.40
2022-12-26T15:03:46.139Z,99543.04
2022-12-26T15:07:20.327Z,99541.69
2022-12-26T15:10:24.812Z,99554.23
2022-12-26T15:13:34.506Z,99557.38
2022-12-26T15:16:33.729Z,99548.86
2022-12-26T15:19:59.086Z,99541.73
2022-12-26T15:23:10.789Z,99535.13
2022-12-26T15:26:28.091Z,99540.56
2022-12-26T15:29:33.245Z,99534.73
2022-12-26T15:32:20.109Z,99533.75
2022-12-26T15:35:13.189Z,99522.52
2022-12-26T15:38:19.563Z,99524.56
2022-12-26T15:41:04.735Z,99519.30
2022-12-26T15:43:54.754Z,99516.15
2022-12-26T15:46:32.163Z,99509.74
2022-12-26T15:49:30.348Z,99513.88
2022-12-26T15:52:14.948Z,99528.69
2022-12-26T15:55:18.147Z,99542.90
2022-12-26T15:57:59.458Z,99536.30
2022-12-26T16:00:38.621Z,99508.65
2022-12-26T16:03:34.232Z,99499.27
2022-12-26T16:06:31.414Z,99558.46
2022-12-26T16:09:29.575Z,99570.79
2022-12-26T16:12:04.097Z,99578.30
2022-12-26T16:14:40.279Z,99571.45
2022-12-26T16:17:27.633Z,99557.20
2022-12-26T16:20:00.417Z,99542.73
2022-12-26T16:22:47.199Z,99522.48
2022-12-26T16:25:34.386Z,99511.31
2022-12-26T16:28:16.231Z,99510.73
2022-12-26T16:30:51.849Z,99492.59
2022-12-26T16:33:25.871Z,99515.67
2022-12-26T16:36:01.314Z,99554.09
2022-12-26T16:38:36.922Z,99543.69
2022-12-26T16:41:25.328Z,99536.98
2022-12-26T16:43:58.414Z,99537.59
2022-12-26T16:46:34.513Z,99540.35
2022-12-26T16:49:07.129Z,99546.36
2022-12-26T16:51:52.132Z,99549.25
2022-12-26T16:54:38.665Z,99543.92
2022-12-26T16:57:20.027Z,99543.73
2022-12-26T16:59:56.614Z,99551.16
2022-12-26T17:02:34.333Z,99560.86
2022-12-26T17:05:26.641Z,99554.19
2022-12-26T17:08:02.876Z,99560.80
2022-12-26T17:10:38.679Z,99570.95
2022-12-26T17:13:21.814Z,99578.92
2022-12-26T17:16:13.993Z,99571.65
2022-12-26T17:18:52.784Z,99566.33
2022-12-26T17:21:34.049Z,99558.93
2022-12-26T17:24:30.941Z,99556.10
2022-12-26T17:27:17.701Z,99552.68
2022-12-26T17:31:07.715Z,99543.23
2022-12-26T17:33:47.691Z,99548.25
2022-12-26T17:37:08.423Z,99549.23
2022-12-26T17:39:24.857Z,99562.83
2022-12-26T17:42:03.554Z,99570.71
2022-12-26T17:44:41.980Z,99569.32
2022-12-26T17:47:24.996Z,99574.62
2022-12-26T17:49:59.533Z,99564.75
2022-12-26T17:52:33.845Z,99571.70
2022-12-26T17:55:55.783Z,99586.23
2022-12-26T17:59:17.338Z,99583.92
2022-12-26T18:01:57.093Z,99589.90
2022-12-26T18:04:31.641Z,99582.52
2022-12-26T18:07:31.817Z,99578.45
2022-12-26T18:11:04.430Z,99581.74
2022-12-26T18:14:08.012Z,99578.09
2022-12-26T18:17:05.036Z,99583.11
2022-12-26T18:20:30.348Z,99572.30
2022-12-26T18:23:53.512Z,99578.23
2022-12-26T18:26:54.885Z,99577.41
2022-12-26T18:29:28.593Z,99577.48
2022-12-26T18:32:12.011Z,99579.76
2022-12-26T18:35:11.563Z,99581.09
2022-12-26T18:38:08.969Z,99584.81
2022-12-26T18:41:06.019Z,99585.95
2022-12-26T18:44:04.811Z,99582.65
2022-12-26T18:47:04.021Z,99583.55
2022-12-26T18:50:52.876Z,99599.45
2022-12-26T18:53:26.930Z,99598.60
2022-12-26T18:56:07.818Z,99596.14
2022-12-26T18:58:41.984Z,99601.82
2022-12-26T19:01:23.917Z,99608.06
2022-12-26T19:03:57.915Z,99614.25
2022-12-26T19:07:44.047Z,99611.11
2022-12-26T19:10:33.270Z,99603.98
2022-12-26T19:14:21.025Z,99597.31
2022-12-26T19:16:55.076Z,99598.54
2022-12-26T19:19:31.827Z,99596.84
2022-12-26T19:22:30.203Z,99598.11
2022-12-26T19:25:27.149Z,99594.14
2022-12-26T19:28:03.851Z,99589.81
2022-12-26T19:31:06.935Z,99596.95
2022-12-26T19:33:43.576Z,99594.16
2022-12-26T19:36:41.141Z,99602.73
2022-12-26T19:39:15.973Z,99609.81
2022-12-26T19:42:14.201Z,99615.16
2022-12-26T19:44:46.983Z,99614.16
2022-12-26T19:51:43.290Z,99613.31
2022-12-26T19:54:39.283Z,99619.48
2022-12-26T19:57:12.443Z,99625.61
2022-12-26T19:59:47.366Z,99622.77
2022-12-26T20:02:26.991Z,99618.63
2022-12-26T20:05:01.023Z,99620.27
2022-12-26T20:07:39.242Z,99616.81
2022-12-26T20:10:12.580Z,99607.70
2022-12-26T20:12:45.186Z,99607.08
2022-12-26T20:15:35.619Z,99617.77
2022-12-26T20:18:13.480Z,99621.39
2022-12-26T20:21:03.953Z,99617.88
2022-12-26T20:23:43.708Z,99623.18
2022-12-26T20:26:40.885Z,99629.91
2022-12-26T20:29:13.737Z,99630.44
2022-12-26T20:31:46.908Z,99635.05
2022-12-26T20:35:34.240Z,99634.90
2022-12-26T20:38:32.108Z,99623.77
2022-12-26T20:41:09.042Z,99618.63
2022-12-26T20:43:55.589Z,99612.05
2022-12-26T20:46:38.705Z,99620.77
2022-12-26T20:49:12.194Z,99630.17
2022-12-26T20:52:33.700Z,99639.77
2022-12-26T20:55:14.179Z,99633.11
2022-12-26T20:57:46.958Z,99628.08
2022-12-26T21:00:21.427Z,99630.28
2022-12-26T21:02:55.354Z,99632.73
2022-12-26T21:05:37.272Z,99636.00
2022-12-26T21:08:33.146Z,99631.59
2022-12-26T21:11:57.324Z,99629.81
2022-12-26T21:15:02.749Z,99633.98
2022-12-26T21:18:02.796Z,99635.06
2022-12-26T21:20:37.903Z,99637.46
2022-12-26T21:24:23.393Z,99630.55
2022-12-26T21:27:23.358Z,99622.40
2022-12-26T21:29:58.960Z,99625.45
2022-12-26T21:33:20.832Z,99624.23
2022-12-26T21:35:58.484Z,99626.45
2022-12-26T21:39:27.681Z,99622.44
2022-12-26T21:42:05.821Z,99620.48
2022-12-26T21:45:04.689Z,99620.13
2022-12-26T21:47:37.527Z,99619.79
2022-12-26T21:50:33.646Z,99619.00
2022-12-26T21:53:08.298Z,99622.65
2022-12-26T21:56:10.357Z,99622.45
2022-12-26T21:59:01.325Z,99612.72
2022-12-26T22:02:00.065Z,99606.68
2022-12-26T22:04:39.061Z,99593.45
2022-12-26T22:07:59.779Z,99587.10
2022-12-26T22:10:55.518Z,99583.83
2022-12-26T22:13:32.331Z,99592.80
2022-12-26T22:16:10.987Z,99596.23
2022-12-26T22:19:07.630Z,99598.24
2022-12-26T22:21:40.072Z,99596.54
2022-12-26T22:24:16.272Z,99594.76
2022-12-26T22:32:55.962Z,99586.34
2022-12-26T22:35:31.422Z,99590.45
2022-12-26T22:38:07.155Z,99590.11
2022-12-26T22:41:55.199Z,99592.30
2022-12-26T22:44:40.045Z,99588.08
2022-12-26T22:47:16.102Z,99588.95
2022-12-26T22:49:50.735Z,99583.98
2022-12-26T22:53:04.096Z,99579.98
2022-12-26T22:55:35.345Z,99583.06
2022-12-26T22:58:11.173Z,99582.73
2022-12-26T23:01:37.030Z,99586.92
2022-12-26T23:04:12.124Z,99574.84
2022-12-26T23:06:48.499Z,99576.33
2022-12-26T23:09:31.424Z,99574.91
2022-12-26T23:12:25.911Z,99565.22
2022-12-26T23:15:12.370Z,99560.08
2022-12-26T23:18:49.749Z,99557.43
2022-12-26T23:22:11.264Z,99560.15
2022-12-26T23:25:12.442Z,99570.45
2022-12-26T23:28:06.216Z,99565.17
2022-12-26T23:30:39.137Z,99565.05
2022-12-26T23:33:19.712Z,99571.19
2022-12-26T23:36:22.404Z,99571.45
2022-12-26T23:43:54.390Z,99554.77
2022-12-26T23:46:55.333Z,99552.23
2022-12-26T23:49:31.626Z,99555.95
2022-12-26T23:52:07.710Z,99554.79
2022-12-26T23:54:38.313Z,99560.02
2022-12-26T23:57:38.343Z,99563.10
